createdAt,value
2023-03-05T00:00:57.678Z,1.80
2023-03-05T00:03:25.051Z,3.00
2023-03-05T00:05:57.106Z,1.98
2023-03-05T00:08:24.258Z,2.25
2023-03-05T00:11:02.615Z,1.50
2023-03-05T00:13:29.788Z,1.90
2023-03-05T00:15:57.019Z,1.40
2023-03-05T00:18:24.175Z,1.08
2023-03-05T00:20:51.692Z,0.80
2023-03-05T00:23:18.768Z,0.80
2023-03-05T00:25:46.713Z,1.52
2023-03-05T00:28:14.406Z,1.75
2023-03-05T00:30:41.656Z,1.63
2023-03-05T00:33:09.615Z,2.38
2023-03-05T00:35:40.900Z,1.40
2023-03-05T00:38:08.049Z,1.88
2023-03-05T00:40:38.498Z,1.20
2023-03-05T00:43:05.790Z,1.25
2023-03-05T00:45:33.321Z,0.80
2023-03-05T00:48:00.745Z,0.90
2023-03-05T00:50:28.157Z,1.50
2023-03-05T00:52:55.661Z,1.35
2023-03-05T00:55:22.934Z,1.13
2023-03-05T00:57:50.160Z,1.00
2023-03-05T01:00:17.556Z,1.00
2023-03-05T01:02:44.794Z,0.80
2023-03-05T01:05:13.231Z,0.80
2023-03-05T01:07:40.418Z,0.75
2023-03-05T01:10:08.424Z,0.65
2023-03-05T01:12:35.576Z,1.13
2023-03-05T01:15:03.053Z,1.15
2023-03-05T01:17:30.266Z,1.20
2023-03-05T01:19:57.418Z,0.70
2023-03-05T01:22:24.583Z,1.02
2023-03-05T01:24:51.759Z,1.23
2023-03-05T01:27:18.900Z,0.70
2023-03-05T01:29:46.029Z,0.73
2023-03-05T01:32:13.250Z,0.90
2023-03-05T01:34:41.915Z,0.80
2023-03-05T01:37:09.387Z,0.90
2023-03-05T01:39:36.517Z,1.52
2023-03-05T01:42:04.572Z,1.17
2023-03-05T01:44:32.359Z,1.02
2023-03-05T01:46:59.513Z,1.00
2023-03-05T01:49:28.558Z,1.00
2023-03-05T01:52:07.965Z,0.93
2023-03-05T01:54:37.884Z,1.35
2023-03-05T01:57:08.725Z,1.45
2023-03-05T01:59:37.389Z,1.73
2023-03-05T02:02:06.077Z,1.05
2023-03-05T02:04:37.066Z,1.27
2023-03-05T02:07:04.217Z,1.20
2023-03-05T02:09:31.377Z,2.53
2023-03-05T02:11:58.730Z,1.10
2023-03-05T02:14:26.257Z,1.05
2023-03-05T02:16:53.507Z,1.30
2023-03-05T02:19:20.645Z,1.48
2023-03-05T02:21:48.906Z,1.02
2023-03-05T02:24:16.956Z,0.98
2023-03-05T02:26:44.919Z,1.35
2023-03-05T02:29:15.241Z,0.80
2023-03-05T02:31:42.382Z,0.90
2023-03-05T02:34:09.576Z,0.80
2023-03-05T02:36:36.727Z,0.90
2023-03-05T02:39:03.884Z,1.02
2023-03-05T02:41:31.037Z,1.00
2023-03-05T02:43:58.166Z,0.95
2023-03-05T02:46:25.343Z,1.10
2023-03-05T02:48:52.589Z,0.80
2023-03-05T02:51:19.729Z,0.75
2023-03-05T02:53:46.812Z,0.75
2023-03-05T02:56:13.967Z,0.75
2023-03-05T02:58:41.842Z,0.63
2023-03-05T03:01:10.183Z,0.85
2023-03-05T03:03:39.739Z,0.65
2023-03-05T03:06:07.224Z,0.73
2023-03-05T03:08:34.354Z,0.40
2023-03-05T03:11:12.624Z,0.85
2023-03-05T03:13:42.927Z,0.68
2023-03-05T03:16:11.403Z,0.65
2023-03-05T03:18:38.836Z,0.55
2023-03-05T03:21:06.952Z,0.60
2023-03-05T03:23:34.441Z,0.50
2023-03-05T03:26:01.559Z,0.43
2023-03-05T03:28:28.694Z,0.47
2023-03-05T03:30:56.076Z,1.02
2023-03-05T03:33:23.226Z,0.30
2023-03-05T03:35:50.459Z,0.50
2023-03-05T03:38:17.726Z,0.50
2023-03-05T03:40:44.920Z,0.85
2023-03-05T03:43:12.248Z,0.40
2023-03-05T03:45:43.492Z,0.63
2023-03-05T03:48:11.067Z,0.60
2023-03-05T03:50:41.904Z,1.02
2023-03-05T03:53:09.291Z,0.90
2023-03-05T03:55:36.838Z,0.77
2023-03-05T03:58:04.134Z,1.10
2023-03-05T04:00:31.455Z,1.30
2023-03-05T04:02:58.828Z,0.80
2023-03-05T04:05:26.087Z,0.75
2023-03-05T04:07:53.245Z,0.93
2023-03-05T04:10:20.382Z,0.45
2023-03-05T04:12:47.552Z,0.38
2023-03-05T04:15:14.671Z,0.73
2023-03-05T04:17:41.767Z,0.57
2023-03-05T04:20:10.438Z,0.50
2023-03-05T04:22:37.961Z,0.50
2023-03-05T04:25:08.561Z,0.55
2023-03-05T04:27:37.517Z,0.50
2023-03-05T04:30:05.005Z,0.60
2023-03-05T04:32:32.172Z,0.90
2023-03-05T04:34:59.651Z,0.70
2023-03-05T04:37:26.907Z,0.60
2023-03-05T04:39:54.175Z,0.50
2023-03-05T04:42:21.445Z,0.43
2023-03-05T04:44:52.117Z,0.50
2023-03-05T04:47:20.227Z,0.82
2023-03-05T04:49:47.588Z,0.60
2023-03-05T04:52:15.374Z,0.45
2023-03-05T04:54:42.487Z,0.75
2023-03-05T04:57:09.837Z,0.60
2023-03-05T04:59:37.668Z,0.60
2023-03-05T05:02:05.211Z,0.60
2023-03-05T05:04:32.414Z,0.70
2023-03-05T05:06:59.992Z,1.10
2023-03-05T05:09:27.372Z,0.50
2023-03-05T05:11:54.934Z,0.63
2023-03-05T05:14:22.198Z,0.80
2023-03-05T05:16:49.373Z,0.80
2023-03-05T05:19:17.314Z,0.80
2023-03-05T05:21:44.576Z,0.52
2023-03-05T05:24:11.727Z,0.60
2023-03-05T05:26:38.921Z,0.80
2023-03-05T05:29:06.074Z,0.70
2023-03-05T05:31:33.324Z,0.57
2023-03-05T05:34:00.464Z,1.00
2023-03-05T05:36:27.820Z,0.98
2023-03-05T05:38:55.066Z,0.80
2023-03-05T05:41:22.230Z,0.85
2023-03-05T05:43:49.527Z,0.80
2023-03-05T05:46:18.243Z,1.00
2023-03-05T05:48:46.125Z,0.60
2023-03-05T05:51:17.783Z,1.17
2023-03-05T05:53:45.539Z,0.70
2023-03-05T05:56:13.927Z,0.60
2023-03-05T05:58:41.967Z,0.75
2023-03-05T06:01:20.036Z,0.85
2023-03-05T06:03:47.268Z,0.82
2023-03-05T06:06:16.465Z,0.73
2023-03-05T06:08:43.608Z,0.70
2023-03-05T06:11:11.164Z,0.70
2023-03-05T06:13:38.337Z,0.63
2023-03-05T06:16:07.136Z,0.70
2023-03-05T06:18:34.941Z,0.90
2023-03-05T06:21:04.002Z,0.98
2023-03-05T06:23:31.119Z,0.45
2023-03-05T06:26:02.280Z,0.98
2023-03-05T06:28:30.008Z,0.93
2023-03-05T06:31:04.394Z,0.50
2023-03-05T06:33:31.965Z,0.68
2023-03-05T06:35:59.259Z,1.25
2023-03-05T06:38:26.710Z,0.90
2023-03-05T06:40:53.939Z,0.80
2023-03-05T06:43:21.014Z,0.95
2023-03-05T06:45:48.444Z,0.70
2023-03-05T06:48:15.693Z,0.70
2023-03-05T06:50:43.182Z,0.70
2023-03-05T06:53:10.532Z,0.80
2023-03-05T06:55:39.842Z,0.73
2023-03-05T06:58:07.712Z,0.85
2023-03-05T07:00:34.959Z,0.68
2023-03-05T07:03:02.098Z,0.60
2023-03-05T07:05:29.301Z,0.52
2023-03-05T07:07:56.500Z,0.73
2023-03-05T07:10:23.828Z,0.52
2023-03-05T07:12:51.145Z,0.60
2023-03-05T07:15:18.598Z,0.60
2023-03-05T07:17:45.870Z,0.52
2023-03-05T07:20:13.192Z,0.70
2023-03-05T07:22:40.439Z,0.98
2023-03-05T07:25:07.833Z,0.98
2023-03-05T07:27:38.693Z,1.10
2023-03-05T07:30:06.274Z,0.98
2023-03-05T07:32:35.516Z,0.60
2023-03-05T07:35:02.899Z,0.40
2023-03-05T07:37:30.140Z,0.70
2023-03-05T07:39:57.225Z,0.60
2023-03-05T07:42:24.386Z,0.50
2023-03-05T07:44:51.519Z,0.70
2023-03-05T07:47:18.811Z,0.75
2023-03-05T07:49:46.223Z,0.95
2023-03-05T07:52:13.562Z,0.93
2023-03-05T07:54:42.161Z,0.60
2023-03-05T07:57:09.984Z,0.60
2023-03-05T07:59:37.140Z,0.80
2023-03-05T08:02:04.357Z,0.82
2023-03-05T08:04:32.003Z,0.60
2023-03-05T08:07:00.365Z,0.60
2023-03-05T08:09:29.059Z,0.50
2023-03-05T08:11:56.188Z,0.77
2023-03-05T08:14:23.484Z,1.08
2023-03-05T08:16:52.258Z,0.50
2023-03-05T08:19:20.080Z,0.45
2023-03-05T08:21:47.351Z,0.85
2023-03-05T08:24:15.205Z,0.68
2023-03-05T08:26:42.494Z,0.60
2023-03-05T08:29:10.245Z,0.50
2023-03-05T08:31:38.238Z,0.57
2023-03-05T08:34:05.840Z,0.32
2023-03-05T08:36:33.372Z,0.40
2023-03-05T08:39:00.517Z,0.45
2023-03-05T08:41:27.985Z,0.70
2023-03-05T08:43:55.399Z,0.35
2023-03-05T08:46:22.529Z,0.40
2023-03-05T08:48:49.994Z,0.70
2023-03-05T08:51:18.437Z,0.60
2023-03-05T08:53:46.036Z,0.38
2023-03-05T08:56:13.305Z,0.40
2023-03-05T08:58:40.626Z,0.52
2023-03-05T09:01:08.222Z,0.50
2023-03-05T09:03:36.369Z,0.70
2023-03-05T09:06:04.550Z,0.50
2023-03-05T09:08:31.948Z,0.47
2023-03-05T09:10:59.711Z,0.63
2023-03-05T09:13:26.871Z,0.20
2023-03-05T09:15:57.980Z,0.50
2023-03-05T09:18:25.657Z,0.30
2023-03-05T09:20:53.173Z,0.68
2023-03-05T09:23:20.747Z,0.35
2023-03-05T09:25:47.919Z,1.13
2023-03-05T09:28:15.117Z,0.50
2023-03-05T09:30:42.294Z,0.40
2023-03-05T09:33:09.402Z,0.40
2023-03-05T09:35:36.989Z,0.32
2023-03-05T09:38:05.138Z,0.50
2023-03-05T09:40:44.674Z,0.40
2023-03-05T09:43:31.123Z,0.50
2023-03-05T09:46:02.515Z,0.35
2023-03-05T09:48:41.727Z,0.57
2023-03-05T09:51:13.642Z,0.85
2023-03-05T09:56:18.809Z,0.60
2023-03-05T09:58:49.327Z,1.00
2023-03-05T10:01:16.999Z,0.95
2023-03-05T10:03:44.324Z,0.30
2023-03-05T10:06:14.739Z,0.40
2023-03-05T10:08:58.893Z,0.60
2023-03-05T10:11:26.120Z,0.70
2023-03-05T10:13:53.551Z,0.63
2023-03-05T10:16:39.604Z,0.75
2023-03-05T10:19:13.243Z,0.30
2023-03-05T10:21:40.555Z,0.70
2023-03-05T10:24:22.799Z,0.73
2023-03-05T10:26:53.195Z,0.77
2023-03-05T10:29:20.542Z,0.88
2023-03-05T10:32:03.283Z,0.50
2023-03-05T10:34:42.326Z,0.40
2023-03-05T10:37:15.820Z,0.32
2023-03-05T10:39:49.047Z,1.05
2023-03-05T10:42:34.714Z,0.95
2023-03-05T10:45:06.728Z,0.88
2023-03-05T10:50:01.255Z,0.65
2023-03-05T10:52:40.741Z,0.55
2023-03-05T10:55:15.809Z,0.60
2023-03-05T10:57:42.980Z,0.50
2023-03-05T11:00:23.832Z,0.40
2023-03-05T11:02:58.434Z,0.30
2023-03-05T11:05:43.150Z,0.50
2023-03-05T11:08:25.883Z,0.47
2023-03-05T11:11:11.561Z,0.60
2023-03-05T11:13:52.313Z,0.30
2023-03-05T11:16:22.453Z,0.93
2023-03-05T11:18:50.050Z,0.80
2023-03-05T11:21:23.879Z,0.43
2023-03-05T11:24:06.592Z,0.40
2023-03-05T11:26:34.351Z,0.30
2023-03-05T11:29:03.280Z,0.32
2023-03-05T11:31:31.531Z,0.73
2023-03-05T11:34:00.513Z,0.20
2023-03-05T11:36:30.934Z,0.40
2023-03-05T11:39:17.423Z,0.35
2023-03-05T11:41:48.488Z,0.30
2023-03-05T11:44:22.488Z,0.40
2023-03-05T11:46:52.137Z,0.40
2023-03-05T11:49:22.211Z,0.20
2023-03-05T11:51:57.281Z,1.45
2023-03-05T11:54:29.428Z,0.70
2023-03-05T11:56:56.981Z,1.38
2023-03-05T11:59:28.520Z,0.60
2023-03-05T12:01:57.686Z,0.40
2023-03-05T12:04:25.506Z,0.43
2023-03-05T12:06:57.966Z,0.30
2023-03-05T12:09:47.739Z,0.70
2023-03-05T12:12:15.260Z,0.20
2023-03-05T12:14:49.897Z,0.80
2023-03-05T12:17:21.900Z,0.68
2023-03-05T12:19:55.211Z,0.40
2023-03-05T12:22:23.738Z,0.43
2023-03-05T12:24:51.472Z,0.38
2023-03-05T12:27:37.944Z,0.60
2023-03-05T12:30:05.576Z,0.60
2023-03-05T12:32:34.799Z,0.60
2023-03-05T12:35:06.441Z,0.40
2023-03-05T12:37:33.668Z,1.00
2023-03-05T12:40:20.514Z,0.68
2023-03-05T12:42:48.755Z,0.60
2023-03-05T12:45:16.232Z,1.02
2023-03-05T12:47:55.871Z,0.65
2023-03-05T12:50:29.236Z,0.52
2023-03-05T12:52:58.058Z,0.57
2023-03-05T12:55:28.802Z,0.22
2023-03-05T12:58:00.747Z,0.95
2023-03-05T13:02:58.723Z,0.30
2023-03-05T13:05:28.864Z,0.63
2023-03-05T13:08:10.341Z,0.70
2023-03-05T13:10:37.586Z,0.40
2023-03-05T13:13:04.859Z,0.55
2023-03-05T13:15:32.521Z,0.52
2023-03-05T13:18:07.681Z,0.43
2023-03-05T13:20:40.303Z,0.65
2023-03-05T13:23:14.332Z,0.30
2023-03-05T13:25:41.513Z,0.80
2023-03-05T13:28:13.041Z,0.40
2023-03-05T13:30:40.912Z,0.90
2023-03-05T13:33:16.964Z,0.50
2023-03-05T13:35:51.461Z,0.60
2023-03-05T13:38:35.794Z,0.77
2023-03-05T13:41:09.049Z,0.35
2023-03-05T13:43:42.896Z,0.70
2023-03-05T13:46:10.129Z,0.40
2023-03-05T13:48:37.340Z,0.70
2023-03-05T13:51:09.607Z,0.43
2023-03-05T13:53:36.898Z,0.47
2023-03-05T13:56:05.638Z,0.52
2023-03-05T13:58:49.215Z,0.50
2023-03-05T14:01:39.021Z,0.30
2023-03-05T14:04:18.195Z,0.60
2023-03-05T14:06:56.581Z,0.40
2023-03-05T14:09:25.557Z,0.35
2023-03-05T14:12:00.586Z,0.70
2023-03-05T14:14:32.092Z,0.30
2023-03-05T14:17:19.267Z,0.60
2023-03-05T14:19:46.418Z,0.30
2023-03-05T14:22:29.578Z,0.38
2023-03-05T14:24:56.804Z,0.50
2023-03-05T14:27:24.063Z,0.57
2023-03-05T14:29:51.317Z,0.40
2023-03-05T14:32:28.476Z,0.50
2023-03-05T14:34:58.201Z,0.32
2023-03-05T14:37:27.384Z,0.90
2023-03-05T14:39:59.582Z,0.40
2023-03-05T14:42:35.956Z,0.80
2023-03-05T14:45:12.802Z,0.35
2023-03-05T14:47:39.980Z,0.80
2023-03-05T14:50:08.223Z,0.35
2023-03-05T14:52:36.278Z,0.25
2023-03-05T14:55:03.763Z,0.40
2023-03-05T14:57:32.721Z,0.40
2023-03-05T15:00:00.152Z,0.52
2023-03-05T15:02:28.492Z,0.43
2023-03-05T15:04:55.753Z,0.40
2023-03-05T15:07:26.322Z,0.50
2023-03-05T15:09:53.679Z,0.57
2023-03-05T15:12:24.646Z,0.60
2023-03-05T15:14:53.030Z,0.95
2023-03-05T15:17:25.189Z,1.55
2023-03-05T15:19:53.790Z,0.30
2023-03-05T15:22:20.950Z,0.55
2023-03-05T15:24:48.085Z,0.52
2023-03-05T15:27:15.356Z,0.50
2023-03-05T15:29:42.687Z,0.60
2023-03-05T15:32:10.194Z,0.40
2023-03-05T15:34:37.710Z,0.93
2023-03-05T15:37:05.037Z,0.70
2023-03-05T15:39:32.266Z,0.90
2023-03-05T15:41:59.673Z,1.10
2023-03-05T15:44:27.026Z,0.98
2023-03-05T15:46:56.585Z,0.80
2023-03-05T15:49:24.512Z,0.82
2023-03-05T15:51:51.799Z,1.60
2023-03-05T15:54:19.700Z,3.78
2023-03-05T15:56:48.109Z,1.80
2023-03-05T15:59:15.338Z,2.20
2023-03-05T16:01:47.622Z,1.88
2023-03-05T16:04:16.090Z,1.65
2023-03-05T16:06:43.928Z,3.25
2023-03-05T16:09:11.288Z,1.70
2023-03-05T16:11:40.749Z,1.05
2023-03-05T16:14:09.509Z,0.60
2023-03-05T16:16:37.344Z,1.45
2023-03-05T16:19:06.688Z,1.67
2023-03-05T16:21:33.879Z,4.15
2023-03-05T16:24:01.209Z,2.10
2023-03-05T16:26:28.607Z,3.30
2023-03-05T16:28:56.761Z,1.25
2023-03-05T16:31:23.924Z,0.93
2023-03-05T16:33:51.087Z,1.05
2023-03-05T16:36:20.997Z,0.88
2023-03-05T16:38:49.413Z,0.75
2023-03-05T16:41:17.278Z,2.50
2023-03-05T16:43:45.378Z,0.90
2023-03-05T16:46:13.297Z,0.80
2023-03-05T16:48:40.579Z,1.15
2023-03-05T16:51:07.707Z,0.63
2023-03-05T16:53:35.042Z,0.63
2023-03-05T16:56:06.460Z,0.88
2023-03-05T16:58:34.392Z,0.43
2023-03-05T17:01:02.346Z,0.68
2023-03-05T17:03:33.269Z,0.52
2023-03-05T17:06:00.459Z,0.52
2023-03-05T17:08:27.838Z,1.17
2023-03-05T17:10:55.052Z,0.50
2023-03-05T17:13:22.413Z,0.60
2023-03-05T17:15:49.577Z,1.13
2023-03-05T17:18:16.907Z,1.67
2023-03-05T17:20:44.282Z,1.20
2023-03-05T17:23:11.495Z,0.80
2023-03-05T17:25:38.676Z,0.82
2023-03-05T17:28:06.502Z,1.10
2023-03-05T17:30:36.732Z,0.75
2023-03-05T17:33:04.732Z,0.55
2023-03-05T17:35:32.288Z,0.40
2023-03-05T17:37:59.559Z,0.63
2023-03-05T17:40:27.121Z,0.82
2023-03-05T17:42:54.265Z,0.50
2023-03-05T17:45:21.659Z,0.77
2023-03-05T17:47:48.797Z,0.40
2023-03-05T17:50:15.919Z,0.60
2023-03-05T17:52:43.049Z,0.55
2023-03-05T17:55:11.412Z,0.90
2023-03-05T17:57:41.448Z,3.30
2023-03-05T18:00:16.724Z,2.30
2023-03-05T18:02:43.839Z,2.15
2023-03-05T18:05:11.617Z,2.97
2023-03-05T18:07:38.837Z,1.80
2023-03-05T18:10:06.623Z,2.03
2023-03-05T18:12:33.804Z,3.90
2023-03-05T18:15:01.174Z,4.00
2023-03-05T18:17:28.617Z,5.47
2023-03-05T18:19:55.981Z,1.85
2023-03-05T18:22:23.368Z,1.08
2023-03-05T18:24:50.658Z,1.13
2023-03-05T18:27:17.885Z,1.70
2023-03-05T18:29:45.079Z,1.75
2023-03-05T18:32:12.221Z,2.00
2023-03-05T18:34:39.434Z,3.97
2023-03-05T18:37:06.719Z,5.20
2023-03-05T18:39:33.989Z,3.40
2023-03-05T18:42:01.163Z,4.05
2023-03-05T18:44:28.316Z,5.00
2023-03-05T18:46:55.553Z,4.70
2023-03-05T18:49:22.718Z,4.20
2023-03-05T18:51:50.006Z,5.10
2023-03-05T18:54:17.203Z,3.35
2023-03-05T18:56:44.314Z,3.30
2023-03-05T18:59:11.459Z,2.40
2023-03-05T19:01:38.703Z,1.42
2023-03-05T19:04:05.892Z,1.73
2023-03-05T19:06:34.916Z,2.53
2023-03-05T19:09:08.719Z,1.88
2023-03-05T19:11:35.891Z,1.70
2023-03-05T19:14:03.354Z,1.10
2023-03-05T19:16:38.222Z,1.00
2023-03-05T19:19:15.578Z,0.70
2023-03-05T19:21:53.615Z,4.25
2023-03-05T19:24:22.130Z,5.15
2023-03-05T19:26:50.171Z,2.28
2023-03-05T19:29:17.379Z,1.08
2023-03-05T19:31:44.612Z,1.00
2023-03-05T19:34:12.008Z,1.00
2023-03-05T19:36:39.212Z,1.33
2023-03-05T19:39:07.310Z,2.78
2023-03-05T19:41:34.854Z,3.80
2023-03-05T19:44:02.174Z,4.18
2023-03-05T19:46:29.740Z,3.80
2023-03-05T19:48:56.967Z,3.80
2023-03-05T19:51:25.733Z,3.85
2023-03-05T19:53:53.381Z,3.47
2023-03-05T19:56:21.000Z,3.00
2023-03-05T19:58:49.147Z,3.58
2023-03-05T20:01:16.578Z,3.17
2023-03-05T20:03:47.881Z,3.28
2023-03-05T20:06:15.434Z,3.03
2023-03-05T20:08:42.633Z,3.40
2023-03-05T20:11:13.352Z,4.65
2023-03-05T20:13:41.242Z,4.85
2023-03-05T20:16:27.899Z,4.05
2023-03-05T20:18:55.439Z,3.35
2023-03-05T20:21:24.276Z,3.10
2023-03-05T20:23:52.429Z,3.03
2023-03-05T20:26:20.321Z,2.95
2023-03-05T20:28:48.091Z,3.00
2023-03-05T20:31:15.446Z,2.42
2023-03-05T20:33:42.686Z,2.08
2023-03-05T20:36:10.143Z,1.90
2023-03-05T20:38:37.211Z,2.10
2023-03-05T20:41:08.908Z,2.17
2023-03-05T20:43:37.324Z,1.80
2023-03-05T20:46:05.044Z,2.33
2023-03-05T20:48:33.815Z,2.20
2023-03-05T20:51:11.370Z,2.50
2023-03-05T20:53:38.501Z,2.45
2023-03-05T20:56:05.894Z,2.13
2023-03-05T20:58:33.332Z,3.10
2023-03-05T21:01:00.621Z,2.40
2023-03-05T21:03:28.053Z,2.25
2023-03-05T21:05:57.230Z,2.20
2023-03-05T21:08:24.690Z,2.17
2023-03-05T21:10:52.041Z,2.40
2023-03-05T21:13:19.406Z,2.90
2023-03-05T21:15:46.555Z,2.72
2023-03-05T21:18:13.885Z,2.53
2023-03-05T21:20:41.073Z,2.50
2023-03-05T21:23:08.300Z,3.53
2023-03-05T21:25:35.688Z,3.53
2023-03-05T21:28:04.431Z,2.17
2023-03-05T21:30:35.067Z,2.25
2023-03-05T21:33:03.494Z,2.05
2023-03-05T21:35:32.635Z,2.38
2023-03-05T21:38:00.474Z,1.70
2023-03-05T21:40:28.252Z,1.55
2023-03-05T21:42:55.610Z,1.38
2023-03-05T21:45:24.034Z,1.38
2023-03-05T21:47:52.697Z,1.13
2023-03-05T21:50:21.036Z,1.10
2023-03-05T21:52:48.217Z,1.10
2023-03-05T21:55:17.528Z,1.15
2023-03-05T21:57:45.231Z,0.85
2023-03-05T22:00:13.332Z,1.38
2023-03-05T22:02:41.824Z,1.33
2023-03-05T22:05:12.809Z,1.10
2023-03-05T22:07:40.552Z,1.00
2023-03-05T22:10:08.948Z,0.93
2023-03-05T22:13:06.925Z,1.48
2023-03-05T22:15:34.464Z,1.48
2023-03-05T22:18:01.719Z,1.15
2023-03-05T22:20:28.903Z,1.33
2023-03-05T22:22:56.112Z,1.02
2023-03-05T22:25:23.240Z,1.15
2023-03-05T22:27:50.346Z,1.10
2023-03-05T22:30:17.614Z,1.20
2023-03-05T22:32:44.856Z,1.25
2023-03-05T22:35:12.604Z,1.90
2023-03-05T22:37:41.345Z,1.10
2023-03-05T22:40:09.598Z,1.50
2023-03-05T22:42:36.776Z,2.25
2023-03-05T22:45:03.973Z,1.63
2023-03-05T22:47:31.397Z,1.50
2023-03-05T22:49:59.195Z,1.27
2023-03-05T22:52:26.472Z,1.52
2023-03-05T22:54:55.957Z,1.80
2023-03-05T22:57:23.217Z,1.50
2023-03-05T22:59:50.473Z,1.65
2023-03-05T23:02:17.943Z,1.30
2023-03-05T23:04:53.236Z,1.30
2023-03-05T23:07:22.364Z,1.83
2023-03-05T23:10:00.917Z,1.90
2023-03-05T23:12:29.226Z,1.45
2023-03-05T23:14:56.531Z,0.90
2023-03-05T23:17:23.681Z,1.45
2023-03-05T23:19:50.966Z,1.20
2023-03-05T23:22:18.418Z,1.30
2023-03-05T23:24:45.784Z,1.70
2023-03-05T23:27:14.951Z,1.10
2023-03-05T23:30:08.259Z,1.40
2023-03-05T23:32:36.017Z,1.40
2023-03-05T23:35:03.263Z,1.33
2023-03-05T23:37:30.618Z,1.05
2023-03-05T23:39:57.786Z,1.45
2023-03-05T23:42:24.880Z,1.27
2023-03-05T23:44:52.103Z,1.27
2023-03-05T23:47:19.332Z,1.33
2023-03-05T23:49:46.644Z,1.38
2023-03-05T23:52:14.015Z,1.05
2023-03-05T23:54:41.146Z,1.45
2023-03-05T23:57:08.272Z,1.10
2023-03-05T23:59:36.058Z,1.30
